CCS5 weather

Havelock Airport
Havelock, New Brunswick, Canada

Public forecast

Using degrees Celsius for public forecast. Weather courtesy of forecast.io.

METAR (pilot weather report)

Closest report is Greater Moncton International Airport, 27.0 nm (50.1 km) ENE. Retrieved 2019/04/22 21:33 UTC (2 minutes ago):

CYQM 222133Z 05013KT 15SM OVC014 08/06 A3020 RMK SC8 SLP232

TAF (pilot weather forecast)

Closest forecast is Greater Moncton International Airport, 27.0 nm (50.1 km) ENE. Retrieved 2019/04/22 18:42 UTC (3 hours ago):

TAF CYQM 221739Z 2218/2318 03012KT P6SM FEW015 FEW050 BKN070 TEMPO 2218/2220 BKN020 FM222000 04012KT 3SM -RA BR BKN006 OVC025 PROB30 2300/2318 1SM -RA BR OVC003 RMK NXT FCST BY 230000Z